createdAt,value
2023-03-06T00:00:39.024Z,99040.75
2023-03-06T00:03:06.394Z,99045.91
2023-03-06T00:05:33.254Z,99048.16
2023-03-06T00:08:00.274Z,99041.78
2023-03-06T00:10:29.511Z,99041.56
2023-03-06T00:13:00.126Z,99041.81
2023-03-06T00:15:28.060Z,99040.03
2023-03-06T00:17:56.116Z,99051.41
2023-03-06T00:20:23.969Z,99051.44
2023-03-06T00:22:51.083Z,99061.19
2023-03-06T00:25:21.641Z,99063.63
2023-03-06T00:27:49.613Z,99064.94
2023-03-06T00:30:19.785Z,99069.84
2023-03-06T00:32:46.879Z,99072.44
2023-03-06T00:35:14.859Z,99074.22
2023-03-06T00:37:44.314Z,99077.06
2023-03-06T00:40:16.848Z,99079.38
2023-03-06T00:42:44.074Z,99082.88
2023-03-06T00:45:11.801Z,99078.47
2023-03-06T00:47:39.574Z,99083.00
2023-03-06T00:50:07.279Z,99089.91
2023-03-06T00:52:34.588Z,99090.69
2023-03-06T00:55:01.936Z,99094.50
2023-03-06T00:57:28.827Z,99094.41
2023-03-06T00:59:57.452Z,99092.25
2023-03-06T01:02:24.626Z,99090.28
2023-03-06T01:04:54.671Z,99090.00
2023-03-06T01:07:21.509Z,99091.19
2023-03-06T01:09:48.354Z,99100.34
2023-03-06T01:12:15.529Z,99092.41
2023-03-06T01:14:42.401Z,99103.03
2023-03-06T01:17:10.164Z,99098.81
2023-03-06T01:19:37.392Z,99100.81
2023-03-06T01:22:04.335Z,99106.34
2023-03-06T01:24:31.708Z,99106.06
2023-03-06T01:26:58.674Z,99119.78
2023-03-06T01:29:26.512Z,99113.06
2023-03-06T01:31:53.572Z,99117.53
2023-03-06T01:34:20.681Z,99123.00
2023-03-06T01:36:48.081Z,99123.22
2023-03-06T01:39:15.562Z,99128.16
2023-03-06T01:41:42.429Z,99131.94
2023-03-06T01:44:13.822Z,99135.50
2023-03-06T01:46:42.536Z,99131.28
2023-03-06T01:49:19.028Z,99133.59
2023-03-06T01:51:49.690Z,99132.13
2023-03-06T01:54:24.140Z,99140.53
2023-03-06T01:56:56.429Z,99143.03
2023-03-06T01:59:24.560Z,99146.59
2023-03-06T02:01:51.506Z,99148.78
2023-03-06T02:04:19.531Z,99140.41
2023-03-06T02:06:47.685Z,99149.78
2023-03-06T02:09:15.039Z,99147.69
2023-03-06T02:11:44.283Z,99150.69
2023-03-06T02:14:17.493Z,99153.22
2023-03-06T02:16:44.995Z,99163.44
2023-03-06T02:19:41.326Z,99163.34
2023-03-06T02:22:08.396Z,99160.97
2023-03-06T02:24:47.840Z,99156.03
2023-03-06T02:27:15.961Z,99160.72
2023-03-06T02:29:43.635Z,99163.16
2023-03-06T02:32:10.699Z,99166.47
2023-03-06T02:34:37.443Z,99162.28
2023-03-06T02:37:10.173Z,99176.91
2023-03-06T02:39:44.317Z,99172.38
2023-03-06T02:42:21.382Z,99166.19
2023-03-06T02:44:49.669Z,99173.44
2023-03-06T02:47:16.531Z,99176.50
2023-03-06T02:49:43.366Z,99175.97
2023-03-06T02:52:10.218Z,99186.34
2023-03-06T02:54:39.434Z,99177.53
2023-03-06T02:57:07.182Z,99184.78
2023-03-06T02:59:34.603Z,99188.22
2023-03-06T03:02:03.933Z,99183.50
2023-03-06T03:04:30.938Z,99192.72
2023-03-06T03:06:58.289Z,99181.78
2023-03-06T03:09:25.605Z,99190.41
2023-03-06T03:11:52.514Z,99179.16
2023-03-06T03:14:19.549Z,99192.06
2023-03-06T03:16:47.729Z,99185.66
2023-03-06T03:19:14.560Z,99196.28
2023-03-06T03:21:42.851Z,99196.56
2023-03-06T03:24:09.773Z,99203.69
2023-03-06T03:26:36.846Z,99208.38
2023-03-06T03:29:10.797Z,99208.13
2023-03-06T03:31:37.710Z,99208.03
2023-03-06T03:34:05.113Z,99217.88
2023-03-06T03:36:35.580Z,99213.97
2023-03-06T03:39:04.187Z,99217.06
2023-03-06T03:41:31.221Z,99219.41
2023-03-06T03:43:58.161Z,99220.34
2023-03-06T03:46:26.281Z,99220.66
2023-03-06T03:48:55.748Z,99229.47
2023-03-06T03:51:22.678Z,99236.81
2023-03-06T03:53:53.391Z,99232.63
2023-03-06T03:56:24.725Z,99234.50
2023-03-06T03:59:02.863Z,99233.13
2023-03-06T04:01:37.726Z,99221.31
2023-03-06T04:04:06.319Z,99225.72
2023-03-06T04:06:33.219Z,99226.16
2023-03-06T04:09:00.110Z,99228.78
2023-03-06T04:11:27.085Z,99234.25
2023-03-06T04:13:54.071Z,99228.63
2023-03-06T04:16:21.150Z,99227.91
2023-03-06T04:18:50.503Z,99224.72
2023-03-06T04:21:17.486Z,99232.63
2023-03-06T04:23:44.898Z,99222.69
2023-03-06T04:26:12.462Z,99218.66
2023-03-06T04:28:39.371Z,99228.22
2023-03-06T04:31:06.478Z,99220.50
2023-03-06T04:33:33.432Z,99226.63
2023-03-06T04:36:00.549Z,99229.34
2023-03-06T04:38:30.965Z,99225.88
2023-03-06T04:40:57.918Z,99231.41
2023-03-06T04:43:24.971Z,99228.22
2023-03-06T04:45:51.979Z,99231.84
2023-03-06T04:48:19.046Z,99223.53
2023-03-06T04:50:46.205Z,99219.75
2023-03-06T04:53:14.623Z,99226.53
2023-03-06T04:55:41.558Z,99232.25
2023-03-06T04:58:08.358Z,99244.22
2023-03-06T05:00:35.194Z,99247.97
2023-03-06T05:03:02.363Z,99258.66
2023-03-06T05:05:29.772Z,99265.56
2023-03-06T05:07:57.040Z,99273.59
2023-03-06T05:10:24.358Z,99271.09
2023-03-06T05:12:51.462Z,99274.38
2023-03-06T05:15:18.920Z,99277.09
2023-03-06T05:17:47.532Z,99285.84
2023-03-06T05:20:15.068Z,99281.03
2023-03-06T05:22:42.162Z,99292.22
2023-03-06T05:25:10.835Z,99285.00
2023-03-06T05:27:38.570Z,99298.50
2023-03-06T05:30:06.936Z,99293.63
2023-03-06T05:32:35.532Z,99281.97
2023-03-06T05:35:03.866Z,99298.50
2023-03-06T05:37:30.970Z,99303.91
2023-03-06T05:39:58.156Z,99306.13
2023-03-06T05:42:26.413Z,99308.34
2023-03-06T05:44:55.037Z,99316.41
2023-03-06T05:47:21.857Z,99327.00
2023-03-06T05:49:48.777Z,99324.19
2023-03-06T05:52:17.557Z,99326.16
2023-03-06T05:54:44.841Z,99330.09
2023-03-06T05:57:11.777Z,99328.31
2023-03-06T05:59:38.614Z,99336.66
2023-03-06T06:02:05.781Z,99339.19
2023-03-06T06:04:32.741Z,99338.44
2023-03-06T06:07:01.515Z,99348.44
2023-03-06T06:09:29.107Z,99356.03
2023-03-06T06:12:02.012Z,99353.94
2023-03-06T06:14:30.090Z,99358.41
2023-03-06T06:16:56.943Z,99360.94
2023-03-06T06:19:24.004Z,99361.44
2023-03-06T06:21:54.028Z,99351.69
2023-03-06T06:24:23.598Z,99365.81
2023-03-06T06:26:52.464Z,99362.88
2023-03-06T06:29:19.582Z,99368.31
2023-03-06T06:31:46.666Z,99367.78
2023-03-06T06:34:14.128Z,99377.63
2023-03-06T06:36:41.980Z,99381.31
2023-03-06T06:39:09.674Z,99381.84
2023-03-06T06:41:53.684Z,99388.69
2023-03-06T06:44:22.106Z,99382.72
2023-03-06T06:47:21.317Z,99383.03
2023-03-06T06:49:37.611Z,99395.06
2023-03-06T06:52:06.127Z,99391.50
2023-03-06T06:54:34.521Z,99400.72
2023-03-06T06:57:01.395Z,99402.13
2023-03-06T06:59:28.211Z,99401.78
2023-03-06T07:01:55.003Z,99400.91
2023-03-06T07:04:21.910Z,99397.44
2023-03-06T07:06:48.832Z,99401.19
2023-03-06T07:09:16.359Z,99403.59
2023-03-06T07:11:43.197Z,99421.00
2023-03-06T07:14:10.035Z,99416.44
2023-03-06T07:16:36.945Z,99417.75
2023-03-06T07:19:03.855Z,99420.31
2023-03-06T07:21:30.714Z,99415.75
2023-03-06T07:23:57.752Z,99416.44
2023-03-06T07:26:28.514Z,99420.03
2023-03-06T07:28:55.513Z,99420.41
2023-03-06T07:31:24.958Z,99426.88
2023-03-06T07:33:53.619Z,99422.88
2023-03-06T07:36:21.916Z,99413.59
2023-03-06T07:38:48.813Z,99421.78
2023-03-06T07:41:16.584Z,99421.44
2023-03-06T07:43:44.988Z,99423.88
2023-03-06T07:46:14.346Z,99434.38
2023-03-06T07:48:42.225Z,99423.88
2023-03-06T07:51:14.967Z,99418.97
2023-03-06T07:53:41.798Z,99407.72
2023-03-06T07:56:09.444Z,99409.97
2023-03-06T07:58:38.197Z,99416.69
2023-03-06T08:01:06.682Z,99411.16
2023-03-06T08:03:34.449Z,99417.09
2023-03-06T08:06:20.640Z,99415.91
2023-03-06T08:08:49.042Z,99408.13
2023-03-06T08:11:18.886Z,99412.53
2023-03-06T08:13:46.887Z,99410.41
2023-03-06T08:16:13.784Z,99417.34
2023-03-06T08:18:40.836Z,99420.47
2023-03-06T08:21:10.658Z,99418.47
2023-03-06T08:23:38.528Z,99406.41
2023-03-06T08:26:08.680Z,99415.41
2023-03-06T08:28:35.630Z,99414.66
2023-03-06T08:31:19.041Z,99415.13
2023-03-06T08:33:45.902Z,99416.69
2023-03-06T08:36:12.750Z,99411.59
2023-03-06T08:38:39.608Z,99419.72
2023-03-06T08:41:06.651Z,99420.97
2023-03-06T08:43:35.269Z,99413.41
2023-03-06T08:46:02.801Z,99412.72
2023-03-06T08:48:29.809Z,99414.53
2023-03-06T08:50:56.720Z,99420.00
2023-03-06T08:53:40.390Z,99417.56
2023-03-06T08:56:19.472Z,99422.44
2023-03-06T08:58:47.532Z,99423.03
2023-03-06T09:01:23.185Z,99423.81
2023-03-06T09:03:50.037Z,99425.06
2023-03-06T09:06:17.112Z,99425.19
2023-03-06T09:08:44.689Z,99424.00
2023-03-06T09:11:14.018Z,99417.94
2023-03-06T09:13:41.999Z,99418.84
2023-03-06T09:16:10.126Z,99410.00
2023-03-06T09:18:37.370Z,99415.19
2023-03-06T09:21:05.139Z,99407.16
2023-03-06T09:23:32.412Z,99396.28
2023-03-06T09:26:00.749Z,99397.53
2023-03-06T09:28:28.090Z,99400.03
2023-03-06T09:30:55.081Z,99403.50
2023-03-06T09:33:22.087Z,99401.19
2023-03-06T09:35:56.792Z,99404.69
2023-03-06T09:38:26.049Z,99404.03
2023-03-06T09:40:58.726Z,99397.75
2023-03-06T09:43:36.543Z,99403.91
2023-03-06T09:46:32.540Z,99396.31
2023-03-06T09:49:23.628Z,99397.38
2023-03-06T09:52:01.834Z,99398.44
2023-03-06T09:54:46.229Z,99392.94
2023-03-06T09:57:47.661Z,99379.19
2023-03-06T10:00:19.618Z,99395.13
2023-03-06T10:02:53.726Z,99385.44
2023-03-06T10:05:26.189Z,99381.34
2023-03-06T10:08:06.050Z,99387.09
2023-03-06T10:10:40.094Z,99382.63
2023-03-06T10:13:20.873Z,99387.72
2023-03-06T10:15:50.108Z,99375.84
2023-03-06T10:18:17.191Z,99373.41
2023-03-06T10:21:18.804Z,99364.34
2023-03-06T10:23:55.784Z,99364.03
2023-03-06T10:26:32.696Z,99361.25
2023-03-06T10:29:14.924Z,99360.63
2023-03-06T10:31:49.626Z,99355.72
2023-03-06T10:34:32.663Z,99347.19
2023-03-06T10:37:09.352Z,99345.50
2023-03-06T10:39:36.344Z,99325.69
2023-03-06T10:42:03.311Z,99339.56
2023-03-06T10:44:30.578Z,99332.00
2023-03-06T10:46:57.637Z,99325.00
2023-03-06T10:49:36.147Z,99335.88
2023-03-06T10:52:26.275Z,99319.78
2023-03-06T10:55:12.738Z,99317.78
2023-03-06T10:57:39.815Z,99320.09
2023-03-06T11:00:25.112Z,99312.13
2023-03-06T11:03:18.192Z,99315.03
2023-03-06T11:06:13.610Z,99307.31
2023-03-06T11:08:43.747Z,99304.47
2023-03-06T11:11:35.245Z,99296.78
2023-03-06T11:14:18.138Z,99291.63
2023-03-06T11:16:53.198Z,99293.41
2023-03-06T11:19:25.798Z,99275.66
2023-03-06T11:22:02.150Z,99285.97
2023-03-06T11:24:40.797Z,99283.97
2023-03-06T11:27:23.877Z,99289.63
2023-03-06T11:29:55.120Z,99282.56
2023-03-06T11:32:27.918Z,99274.88
2023-03-06T11:35:02.725Z,99268.25
2023-03-06T11:37:32.493Z,99272.63
2023-03-06T11:40:11.917Z,99269.84
2023-03-06T11:43:11.848Z,99268.88
2023-03-06T11:45:45.938Z,99260.59
2023-03-06T11:48:15.944Z,99263.22
2023-03-06T11:51:25.958Z,99256.88
2023-03-06T11:53:54.391Z,99263.75
2023-03-06T11:56:27.203Z,99249.66
2023-03-06T11:59:31.683Z,99260.88
2023-03-06T12:02:31.920Z,99258.06
2023-03-06T12:05:04.622Z,99255.22
2023-03-06T12:07:41.091Z,99248.72
2023-03-06T12:10:16.868Z,99248.78
2023-03-06T12:13:01.892Z,99266.72
2023-03-06T12:15:37.654Z,99260.56
2023-03-06T12:18:34.992Z,99263.38
2023-03-06T12:21:20.840Z,99249.22
2023-03-06T12:24:29.469Z,99250.19
2023-03-06T12:27:02.283Z,99243.38
2023-03-06T12:30:09.564Z,99236.31
2023-03-06T12:32:39.419Z,99240.81
2023-03-06T12:35:39.291Z,99225.63
2023-03-06T12:38:30.981Z,99236.53
2023-03-06T12:41:15.956Z,99225.69
2023-03-06T12:44:10.263Z,99222.03
2023-03-06T12:46:45.037Z,99218.03
2023-03-06T12:49:31.505Z,99215.72
2023-03-06T12:52:01.334Z,99211.19
2023-03-06T12:54:31.227Z,99225.38
2023-03-06T12:57:00.781Z,99238.72
2023-03-06T12:59:49.618Z,99224.66
2023-03-06T13:02:36.550Z,99229.69
2023-03-06T13:05:38.245Z,99213.59
2023-03-06T13:08:31.558Z,99218.69
2023-03-06T13:11:13.343Z,99219.84
2023-03-06T13:13:45.318Z,99213.16
2023-03-06T13:16:12.596Z,99220.13
2023-03-06T13:18:46.911Z,99208.94
2023-03-06T13:21:42.719Z,99212.16
2023-03-06T13:24:21.474Z,99204.00
2023-03-06T13:26:50.152Z,99201.03
2023-03-06T13:29:38.817Z,99206.53
2023-03-06T13:32:18.040Z,99201.94
2023-03-06T13:34:50.329Z,99210.69
2023-03-06T13:37:17.239Z,99199.28
2023-03-06T13:39:56.871Z,99202.34
2023-03-06T13:42:31.904Z,99203.53
2023-03-06T13:45:09.054Z,99202.06
2023-03-06T13:48:02.492Z,99189.28
2023-03-06T13:50:49.671Z,99189.66
2023-03-06T13:53:27.015Z,99181.66
2023-03-06T13:56:06.557Z,99181.91
2023-03-06T13:59:07.101Z,99191.56
2023-03-06T14:01:48.992Z,99184.91
2023-03-06T14:04:19.021Z,99186.53
2023-03-06T14:06:53.132Z,99188.03
2023-03-06T14:09:30.657Z,99183.00
2023-03-06T14:12:02.271Z,99184.25
2023-03-06T14:14:35.558Z,99188.19
2023-03-06T14:17:05.362Z,99188.38
2023-03-06T14:19:41.946Z,99193.22
2023-03-06T14:22:17.304Z,99177.28
2023-03-06T14:24:54.176Z,99182.75
2023-03-06T14:27:21.433Z,99179.13
2023-03-06T14:29:48.851Z,99178.63
2023-03-06T14:32:22.973Z,99179.63
2023-03-06T14:34:49.999Z,99190.00
2023-03-06T14:37:21.994Z,99178.16
2023-03-06T14:39:49.420Z,99180.69
2023-03-06T14:42:20.361Z,99179.34
2023-03-06T14:44:48.830Z,99186.16
2023-03-06T14:47:27.569Z,99190.34
2023-03-06T14:50:30.128Z,99196.97
2023-03-06T14:52:57.919Z,99183.28
2023-03-06T14:55:28.232Z,99189.16
2023-03-06T14:58:16.310Z,99186.97
2023-03-06T15:00:50.130Z,99181.31
2023-03-06T15:03:22.190Z,99187.28
2023-03-06T15:05:49.460Z,99184.25
2023-03-06T15:08:22.351Z,99179.91
2023-03-06T15:10:58.389Z,99184.09
2023-03-06T15:13:27.655Z,99176.25
2023-03-06T15:16:14.710Z,99176.91
2023-03-06T15:18:58.544Z,99179.59
2023-03-06T15:21:27.318Z,99174.91
2023-03-06T15:23:57.046Z,99182.84
2023-03-06T15:26:31.364Z,99177.50
2023-03-06T15:29:24.919Z,99172.25
2023-03-06T15:31:52.033Z,99176.56
2023-03-06T15:34:25.052Z,99176.41
2023-03-06T15:36:58.593Z,99169.25
2023-03-06T15:39:30.324Z,99165.34
2023-03-06T15:42:07.160Z,99162.31
2023-03-06T15:44:34.190Z,99158.34
2023-03-06T15:47:08.751Z,99166.50
2023-03-06T15:49:38.550Z,99173.59
2023-03-06T15:52:07.304Z,99182.56
2023-03-06T15:54:34.885Z,99182.16
2023-03-06T15:57:08.239Z,99186.88
2023-03-06T15:59:43.020Z,99181.66
2023-03-06T16:02:18.250Z,99182.59
2023-03-06T16:04:46.154Z,99184.88
2023-03-06T16:07:13.497Z,99180.91
2023-03-06T16:09:41.609Z,99187.22
2023-03-06T16:12:20.493Z,99189.41
2023-03-06T16:14:48.699Z,99183.16
2023-03-06T16:17:16.233Z,99181.78
2023-03-06T16:19:43.635Z,99180.72
2023-03-06T16:22:10.740Z,99182.50
2023-03-06T16:24:37.715Z,99190.78
2023-03-06T16:27:05.346Z,99192.34
2023-03-06T16:29:32.542Z,99190.69
2023-03-06T16:32:01.988Z,99196.38
2023-03-06T16:34:29.050Z,99196.66
2023-03-06T16:36:56.347Z,99199.53
2023-03-06T16:39:24.082Z,99204.72
2023-03-06T16:41:51.887Z,99203.72
2023-03-06T16:44:19.374Z,99208.59
2023-03-06T16:46:48.898Z,99211.56
2023-03-06T16:49:22.013Z,99212.41
2023-03-06T16:51:49.128Z,99214.09
2023-03-06T16:54:16.793Z,99220.81
2023-03-06T16:56:44.379Z,99215.66
2023-03-06T16:59:12.180Z,99220.97
2023-03-06T17:01:42.696Z,99221.25
2023-03-06T17:04:10.334Z,99212.59
2023-03-06T17:06:38.050Z,99223.63
2023-03-06T17:09:04.985Z,99223.63
2023-03-06T17:11:31.882Z,99228.84
2023-03-06T17:13:58.688Z,99231.50
2023-03-06T17:16:25.696Z,99239.31
2023-03-06T17:18:52.544Z,99231.84
2023-03-06T17:21:19.659Z,99228.66
2023-03-06T17:23:46.489Z,99237.50
2023-03-06T17:26:18.972Z,99240.00
2023-03-06T17:28:46.804Z,99243.09
2023-03-06T17:31:26.737Z,99243.00
2023-03-06T17:33:59.129Z,99239.88
2023-03-06T17:36:27.806Z,99244.66
2023-03-06T17:38:56.598Z,99242.53
2023-03-06T17:41:24.744Z,99242.28
2023-03-06T17:43:52.863Z,99247.56
2023-03-06T17:46:19.917Z,99249.38
2023-03-06T17:48:47.170Z,99243.50
2023-03-06T17:51:14.300Z,99253.19
2023-03-06T17:53:41.370Z,99246.94
2023-03-06T17:56:11.171Z,99248.34
2023-03-06T17:58:38.192Z,99256.28
2023-03-06T18:01:13.110Z,99260.94
2023-03-06T18:03:43.413Z,99253.84
2023-03-06T18:06:10.502Z,99258.94
2023-03-06T18:08:38.218Z,99246.75
2023-03-06T18:11:07.746Z,99260.78
2023-03-06T18:13:37.236Z,99261.19
2023-03-06T18:16:05.284Z,99249.66
2023-03-06T18:18:32.324Z,99259.00
2023-03-06T18:21:05.084Z,99252.38
2023-03-06T18:23:32.285Z,99257.25
2023-03-06T18:26:11.816Z,99249.91
2023-03-06T18:28:42.690Z,99245.34
2023-03-06T18:31:20.421Z,99255.91
2023-03-06T18:33:51.506Z,99248.63
2023-03-06T18:36:18.816Z,99251.78
2023-03-06T18:38:46.170Z,99251.56
2023-03-06T18:41:14.188Z,99248.53
2023-03-06T18:43:41.126Z,99259.78
2023-03-06T18:46:08.128Z,99260.00
2023-03-06T18:48:35.883Z,99261.66
2023-03-06T18:51:08.247Z,99253.66
2023-03-06T18:53:35.919Z,99253.19
2023-03-06T18:56:03.890Z,99259.50
2023-03-06T18:58:30.757Z,99257.38
2023-03-06T19:00:59.317Z,99260.69
2023-03-06T19:03:26.430Z,99257.66
2023-03-06T19:05:53.440Z,99263.28
2023-03-06T19:08:20.267Z,99269.25
2023-03-06T19:10:47.389Z,99265.53
2023-03-06T19:13:14.866Z,99275.00
2023-03-06T19:15:47.274Z,99279.06
2023-03-06T19:18:17.998Z,99282.41
2023-03-06T19:20:45.371Z,99279.81
2023-03-06T19:23:12.243Z,99283.22
2023-03-06T19:25:39.042Z,99284.94
2023-03-06T19:28:05.910Z,99269.81
2023-03-06T19:30:33.040Z,99271.34
2023-03-06T19:32:59.920Z,99266.66
2023-03-06T19:35:27.352Z,99264.56
2023-03-06T19:37:54.120Z,99255.56
2023-03-06T19:40:21.068Z,99261.69
2023-03-06T19:42:48.061Z,99260.16
2023-03-06T19:45:14.835Z,99246.22
2023-03-06T19:47:41.711Z,99242.88
2023-03-06T19:50:09.468Z,99255.44
2023-03-06T19:52:38.446Z,99242.56
2023-03-06T19:55:06.232Z,99248.25
2023-03-06T19:57:33.092Z,99251.94
2023-03-06T19:59:59.961Z,99259.31
2023-03-06T20:02:27.389Z,99258.56
2023-03-06T20:04:54.965Z,99247.06
2023-03-06T20:07:22.057Z,99250.22
2023-03-06T20:09:49.086Z,99249.75
2023-03-06T20:12:16.445Z,99252.88
2023-03-06T20:14:43.578Z,99254.16
2023-03-06T20:17:10.624Z,99249.63
2023-03-06T20:19:37.632Z,99244.94
2023-03-06T20:22:04.872Z,99244.69
2023-03-06T20:24:31.727Z,99248.41
2023-03-06T20:26:59.523Z,99245.41
2023-03-06T20:29:28.205Z,99249.72
2023-03-06T20:31:57.363Z,99251.63
2023-03-06T20:34:25.356Z,99255.72
2023-03-06T20:36:52.566Z,99257.19
2023-03-06T20:39:21.906Z,99249.13
2023-03-06T20:41:49.245Z,99255.59
2023-03-06T20:44:18.237Z,99251.66
2023-03-06T20:46:45.746Z,99248.16
2023-03-06T20:49:13.446Z,99246.38
2023-03-06T20:51:41.531Z,99250.69
2023-03-06T20:54:11.320Z,99254.41
2023-03-06T20:56:39.730Z,99253.09
2023-03-06T20:59:08.062Z,99250.63
2023-03-06T21:01:38.543Z,99233.59
2023-03-06T21:04:05.433Z,99239.50
2023-03-06T21:06:33.198Z,99241.78
2023-03-06T21:09:01.550Z,99251.50
2023-03-06T21:11:28.768Z,99251.25
2023-03-06T21:13:56.524Z,99244.41
2023-03-06T21:16:25.919Z,99244.22
2023-03-06T21:18:55.485Z,99251.22
2023-03-06T21:21:25.931Z,99248.88
2023-03-06T21:23:53.123Z,99244.44
2023-03-06T21:26:25.183Z,99231.81
2023-03-06T21:28:52.072Z,99231.25
2023-03-06T21:31:20.856Z,99226.69
2023-03-06T21:33:49.009Z,99233.22
2023-03-06T21:36:17.115Z,99233.13
2023-03-06T21:38:43.982Z,99237.63
2023-03-06T21:41:16.490Z,99233.59
2023-03-06T21:43:43.698Z,99244.75
2023-03-06T21:46:11.888Z,99241.09
2023-03-06T21:48:39.034Z,99233.03
2023-03-06T21:51:11.654Z,99242.78
2023-03-06T21:53:41.128Z,99221.59
2023-03-06T21:56:08.817Z,99227.06
2023-03-06T21:58:35.730Z,99223.38
2023-03-06T22:01:02.824Z,99232.56
2023-03-06T22:03:29.846Z,99233.28
2023-03-06T22:05:56.937Z,99227.63
2023-03-06T22:08:25.200Z,99226.56
2023-03-06T22:10:52.754Z,99233.28
2023-03-06T22:13:19.785Z,99238.53
2023-03-06T22:15:53.390Z,99237.59
2023-03-06T22:18:20.251Z,99231.91
2023-03-06T22:20:47.438Z,99231.78
2023-03-06T22:23:14.259Z,99241.47
2023-03-06T22:25:41.178Z,99241.50
2023-03-06T22:28:08.063Z,99239.94
2023-03-06T22:30:35.070Z,99235.94
2023-03-06T22:33:01.888Z,99233.63
2023-03-06T22:35:28.800Z,99228.31
2023-03-06T22:37:55.690Z,99219.56
2023-03-06T22:40:22.605Z,99218.81
2023-03-06T22:42:49.381Z,99220.47
2023-03-06T22:45:16.279Z,99217.78
2023-03-06T22:47:43.301Z,99217.91
2023-03-06T22:50:11.069Z,99213.94
2023-03-06T22:52:37.943Z,99214.66
2023-03-06T22:55:05.335Z,99220.63
2023-03-06T22:57:32.326Z,99213.50
2023-03-06T22:59:59.256Z,99213.06
2023-03-06T23:02:26.172Z,99220.44
2023-03-06T23:04:53.405Z,99224.00
2023-03-06T23:07:21.083Z,99222.53
2023-03-06T23:09:48.843Z,99220.88
2023-03-06T23:12:34.292Z,99221.06
2023-03-06T23:15:19.897Z,99215.78
2023-03-06T23:18:05.320Z,99224.63
2023-03-06T23:20:50.650Z,99227.78
2023-03-06T23:23:40.358Z,99221.78
2023-03-06T23:26:09.069Z,99220.53
2023-03-06T23:28:35.980Z,99217.91
2023-03-06T23:31:10.760Z,99208.16
2023-03-06T23:33:38.878Z,99208.56
2023-03-06T23:36:07.800Z,99218.97
2023-03-06T23:38:35.150Z,99214.63
2023-03-06T23:41:06.595Z,99220.22
2023-03-06T23:43:34.280Z,99214.75
2023-03-06T23:46:01.600Z,99210.97
2023-03-06T23:48:28.768Z,99206.75
2023-03-06T23:50:55.903Z,99208.75
2023-03-06T23:53:23.243Z,99212.44
2023-03-06T23:55:51.250Z,99217.38
2023-03-06T23:58:19.429Z,99229.84
